sensor_id;sensor_type;location;lat;lon;timestamp;temperature;humidity
17202;DHT22;8717;53.588;10.176;2023-01-28T00:00:15;1.40;99.90
17202;DHT22;8717;53.588;10.176;2023-01-28T00:02:46;1.40;99.90
17202;DHT22;8717;53.588;10.176;2023-01-28T00:05:14;1.40;99.90
17202;DHT22;8717;53.588;10.176;2023-01-28T00:07:40;1.40;99.90
17202;DHT22;8717;53.588;10.176;2023-01-28T00:10:10;1.40;99.90
17202;DHT22;8717;53.588;10.176;2023-01-28T00:12:37;1.40;99.90
17202;DHT22;8717;53.588;10.176;2023-01-28T00:15:05;1.40;99.90
17202;DHT22;8717;53.588;10.176;2023-01-28T00:17:32;1.40;99.90
17202;DHT22;8717;53.588;10.176;2023-01-28T00:20:01;1.40;99.90
17202;DHT22;8717;53.588;10.176;2023-01-28T00:22:28;1.40;99.90
17202;DHT22;8717;53.588;10.176;2023-01-28T00:24:55;1.40;99.90
17202;DHT22;8717;53.588;10.176;2023-01-28T00:27:22;1.40;99.90
17202;DHT22;8717;53.588;10.176;2023-01-28T00:29:49;1.40;99.90
17202;DHT22;8717;53.588;10.176;2023-01-28T00:32:16;1.40;99.90
17202;DHT22;8717;53.588;10.176;2023-01-28T00:34:43;1.40;99.90
17202;DHT22;8717;53.588;10.176;2023-01-28T00:37:11;1.40;99.90
17202;DHT22;8717;53.588;10.176;2023-01-28T00:39:43;1.40;99.90
17202;DHT22;8717;53.588;10.176;2023-01-28T00:42:10;1.40;99.90
17202;DHT22;8717;53.588;10.176;2023-01-28T00:44:37;1.40;99.90
17202;DHT22;8717;53.588;10.176;2023-01-28T00:47:04;1.40;99.90
17202;DHT22;8717;53.588;10.176;2023-01-28T00:49:31;1.40;99.90
17202;DHT22;8717;53.588;10.176;2023-01-28T00:51:57;1.40;99.90
17202;DHT22;8717;53.588;10.176;2023-01-28T00:54:25;1.40;99.90
17202;DHT22;8717;53.588;10.176;2023-01-28T00:56:52;1.40;99.90
17202;DHT22;8717;53.588;10.176;2023-01-28T00:59:19;1.30;99.90
17202;DHT22;8717;53.588;10.176;2023-01-28T01:01:46;1.30;99.90
17202;DHT22;8717;53.588;10.176;2023-01-28T01:04:13;1.30;99.90
17202;DHT22;8717;53.588;10.176;2023-01-28T01:06:55;1.40;99.90
17202;DHT22;8717;53.588;10.176;2023-01-28T01:09:22;1.40;99.90
17202;DHT22;8717;53.588;10.176;2023-01-28T01:11:53;1.40;99.90
17202;DHT22;8717;53.588;10.176;2023-01-28T01:14:20;1.40;99.90
17202;DHT22;8717;53.588;10.176;2023-01-28T01:16:47;1.40;99.90
17202;DHT22;8717;53.588;10.176;2023-01-28T01:19:13;1.40;99.90
17202;DHT22;8717;53.588;10.176;2023-01-28T01:21:42;1.40;99.90
17202;DHT22;8717;53.588;10.176;2023-01-28T01:24:11;1.30;99.90
17202;DHT22;8717;53.588;10.176;2023-01-28T01:26:38;1.30;99.90
17202;DHT22;8717;53.588;10.176;2023-01-28T01:29:06;1.30;99.90
17202;DHT22;8717;53.588;10.176;2023-01-28T01:31:34;1.30;99.90
17202;DHT22;8717;53.588;10.176;2023-01-28T01:34:00;1.30;99.90
17202;DHT22;8717;53.588;10.176;2023-01-28T01:36:27;1.30;99.90
17202;DHT22;8717;53.588;10.176;2023-01-28T01:38:55;1.30;99.90
17202;DHT22;8717;53.588;10.176;2023-01-28T01:41:25;1.30;99.90
17202;DHT22;8717;53.588;10.176;2023-01-28T01:43:54;1.30;99.90
17202;DHT22;8717;53.588;10.176;2023-01-28T01:46:27;1.30;99.90
17202;DHT22;8717;53.588;10.176;2023-01-28T01:49:01;1.30;99.90
17202;DHT22;8717;53.588;10.176;2023-01-28T01:51:31;1.30;99.90
17202;DHT22;8717;53.588;10.176;2023-01-28T01:54:03;1.30;99.90
17202;DHT22;8717;53.588;10.176;2023-01-28T01:56:34;1.30;99.90
17202;DHT22;8717;53.588;10.176;2023-01-28T01:59:04;1.30;99.90
17202;DHT22;8717;53.588;10.176;2023-01-28T02:01:33;1.30;99.90
17202;DHT22;8717;53.588;10.176;2023-01-28T02:04:05;1.30;99.90
17202;DHT22;8717;53.588;10.176;2023-01-28T02:06:35;1.30;99.90
17202;DHT22;8717;53.588;10.176;2023-01-28T02:09:06;1.30;99.90
17202;DHT22;8717;53.588;10.176;2023-01-28T02:11:49;1.30;99.90
17202;DHT22;8717;53.588;10.176;2023-01-28T02:14:16;1.30;99.90
17202;DHT22;8717;53.588;10.176;2023-01-28T02:16:45;1.30;99.90
17202;DHT22;8717;53.588;10.176;2023-01-28T02:19:12;1.20;99.90
17202;DHT22;8717;53.588;10.176;2023-01-28T02:22:05;1.20;99.90
17202;DHT22;8717;53.588;10.176;2023-01-28T02:24:53;1.20;99.90
17202;DHT22;8717;53.588;10.176;2023-01-28T02:27:48;1.30;99.90
17202;DHT22;8717;53.588;10.176;2023-01-28T02:30:20;1.20;99.90
17202;DHT22;8717;53.588;10.176;2023-01-28T02:32:53;1.20;99.90
17202;DHT22;8717;53.588;10.176;2023-01-28T02:35:31;1.20;99.90
17202;DHT22;8717;53.588;10.176;2023-01-28T02:38:05;1.20;99.90
17202;DHT22;8717;53.588;10.176;2023-01-28T02:40:35;1.20;99.90
17202;DHT22;8717;53.588;10.176;2023-01-28T02:43:33;1.10;99.90
17202;DHT22;8717;53.588;10.176;2023-01-28T02:46:09;1.10;99.90
17202;DHT22;8717;53.588;10.176;2023-01-28T02:48:55;1.10;99.90
17202;DHT22;8717;53.588;10.176;2023-01-28T02:51:32;1.10;99.90
17202;DHT22;8717;53.588;10.176;2023-01-28T02:54:07;1.10;99.90
17202;DHT22;8717;53.588;10.176;2023-01-28T02:56:42;1.10;99.90
17202;DHT22;8717;53.588;10.176;2023-01-28T02:59:13;1.10;99.90
17202;DHT22;8717;53.588;10.176;2023-01-28T03:02:02;1.10;99.90
17202;DHT22;8717;53.588;10.176;2023-01-28T03:04:33;1.00;99.90
17202;DHT22;8717;53.588;10.176;2023-01-28T03:07:05;1.10;99.90
17202;DHT22;8717;53.588;10.176;2023-01-28T03:09:34;1.10;99.90
17202;DHT22;8717;53.588;10.176;2023-01-28T03:12:06;1.10;99.90
17202;DHT22;8717;53.588;10.176;2023-01-28T03:14:56;1.10;99.90
17202;DHT22;8717;53.588;10.176;2023-01-28T03:17:44;1.10;99.90
17202;DHT22;8717;53.588;10.176;2023-01-28T03:20:38;1.10;99.90
17202;DHT22;8717;53.588;10.176;2023-01-28T03:23:29;1.10;99.90
17202;DHT22;8717;53.588;10.176;2023-01-28T03:26:19;1.10;99.90
17202;DHT22;8717;53.588;10.176;2023-01-28T03:29:07;1.10;99.90
17202;DHT22;8717;53.588;10.176;2023-01-28T03:31:56;1.10;99.90
17202;DHT22;8717;53.588;10.176;2023-01-28T03:34:42;1.10;99.90
17202;DHT22;8717;53.588;10.176;2023-01-28T03:37:27;1.00;99.90
17202;DHT22;8717;53.588;10.176;2023-01-28T03:40:07;1.00;99.90
17202;DHT22;8717;53.588;10.176;2023-01-28T03:42:37;1.00;99.90
17202;DHT22;8717;53.588;10.176;2023-01-28T03:45:12;1.00;99.90
17202;DHT22;8717;53.588;10.176;2023-01-28T03:47:41;1.00;99.90
17202;DHT22;8717;53.588;10.176;2023-01-28T03:50:10;0.90;99.90
17202;DHT22;8717;53.588;10.176;2023-01-28T03:52:46;1.00;99.90
17202;DHT22;8717;53.588;10.176;2023-01-28T03:55:29;0.90;99.90
17202;DHT22;8717;53.588;10.176;2023-01-28T03:57:56;0.90;99.90
17202;DHT22;8717;53.588;10.176;2023-01-28T04:00:23;1.00;99.90
17202;DHT22;8717;53.588;10.176;2023-01-28T04:02:51;1.00;99.90
17202;DHT22;8717;53.588;10.176;2023-01-28T04:05:19;0.90;99.90
17202;DHT22;8717;53.588;10.176;2023-01-28T04:07:48;0.90;99.90
17202;DHT22;8717;53.588;10.176;2023-01-28T04:10:27;1.00;99.90
17202;DHT22;8717;53.588;10.176;2023-01-28T04:13:00;1.00;99.90
17202;DHT22;8717;53.588;10.176;2023-01-28T04:15:26;1.00;99.90
17202;DHT22;8717;53.588;10.176;2023-01-28T04:17:56;1.00;99.90
17202;DHT22;8717;53.588;10.176;2023-01-28T04:20:27;1.00;99.90
17202;DHT22;8717;53.588;10.176;2023-01-28T04:22:57;1.00;99.90
17202;DHT22;8717;53.588;10.176;2023-01-28T04:25:27;1.00;99.90
17202;DHT22;8717;53.588;10.176;2023-01-28T04:27:54;1.00;99.90
17202;DHT22;8717;53.588;10.176;2023-01-28T04:30:24;0.90;99.90
17202;DHT22;8717;53.588;10.176;2023-01-28T04:33:16;0.90;99.90
17202;DHT22;8717;53.588;10.176;2023-01-28T04:35:54;0.90;99.90
17202;DHT22;8717;53.588;10.176;2023-01-28T04:38:32;0.90;99.90
17202;DHT22;8717;53.588;10.176;2023-01-28T04:41:19;0.80;99.90
17202;DHT22;8717;53.588;10.176;2023-01-28T04:43:46;0.80;99.90
17202;DHT22;8717;53.588;10.176;2023-01-28T04:46:33;0.80;99.90
17202;DHT22;8717;53.588;10.176;2023-01-28T04:49:21;0.80;99.90
17202;DHT22;8717;53.588;10.176;2023-01-28T04:51:51;0.80;99.90
17202;DHT22;8717;53.588;10.176;2023-01-28T04:54:26;0.70;99.90
17202;DHT22;8717;53.588;10.176;2023-01-28T04:56:56;0.70;99.90
17202;DHT22;8717;53.588;10.176;2023-01-28T04:59:23;0.70;99.90
17202;DHT22;8717;53.588;10.176;2023-01-28T05:01:50;0.70;99.90
17202;DHT22;8717;53.588;10.176;2023-01-28T05:04:18;0.70;99.90
17202;DHT22;8717;53.588;10.176;2023-01-28T05:06:47;0.70;99.90
17202;DHT22;8717;53.588;10.176;2023-01-28T05:09:17;0.70;99.90
17202;DHT22;8717;53.588;10.176;2023-01-28T05:11:44;0.70;99.90
17202;DHT22;8717;53.588;10.176;2023-01-28T05:14:12;0.70;99.90
17202;DHT22;8717;53.588;10.176;2023-01-28T05:16:43;0.70;99.90
17202;DHT22;8717;53.588;10.176;2023-01-28T05:19:10;0.60;99.90
17202;DHT22;8717;53.588;10.176;2023-01-28T05:21:40;0.60;99.90
17202;DHT22;8717;53.588;10.176;2023-01-28T05:24:17;0.60;99.90
17202;DHT22;8717;53.588;10.176;2023-01-28T05:26:45;0.50;99.90
17202;DHT22;8717;53.588;10.176;2023-01-28T05:29:12;0.50;99.90
17202;DHT22;8717;53.588;10.176;2023-01-28T05:31:39;0.40;99.90
17202;DHT22;8717;53.588;10.176;2023-01-28T05:34:06;0.40;99.90
17202;DHT22;8717;53.588;10.176;2023-01-28T05:36:33;0.40;99.90
17202;DHT22;8717;53.588;10.176;2023-01-28T05:39:06;0.30;99.90
17202;DHT22;8717;53.588;10.176;2023-01-28T05:41:38;0.20;99.90
17202;DHT22;8717;53.588;10.176;2023-01-28T05:44:05;0.20;99.90
17202;DHT22;8717;53.588;10.176;2023-01-28T05:46:51;0.00;99.90
17202;DHT22;8717;53.588;10.176;2023-01-28T05:49:36;-0.10;99.90
17202;DHT22;8717;53.588;10.176;2023-01-28T05:52:26;-0.10;99.90
17202;DHT22;8717;53.588;10.176;2023-01-28T05:54:53;-0.30;99.90
17202;DHT22;8717;53.588;10.176;2023-01-28T05:57:22;-0.20;99.90
17202;DHT22;8717;53.588;10.176;2023-01-28T05:59:49;-0.40;99.90
17202;DHT22;8717;53.588;10.176;2023-01-28T06:02:16;-0.50;99.90
17202;DHT22;8717;53.588;10.176;2023-01-28T06:04:43;-0.60;99.90
17202;DHT22;8717;53.588;10.176;2023-01-28T06:07:09;-0.60;99.90
17202;DHT22;8717;53.588;10.176;2023-01-28T06:09:41;-0.60;99.90
17202;DHT22;8717;53.588;10.176;2023-01-28T06:12:08;-0.70;99.90
17202;DHT22;8717;53.588;10.176;2023-01-28T06:14:50;-0.70;99.90
17202;DHT22;8717;53.588;10.176;2023-01-28T06:17:38;-0.80;99.90
17202;DHT22;8717;53.588;10.176;2023-01-28T06:20:12;-0.80;99.90
17202;DHT22;8717;53.588;10.176;2023-01-28T06:22:41;-0.80;99.90
17202;DHT22;8717;53.588;10.176;2023-01-28T06:25:08;-0.80;99.90
17202;DHT22;8717;53.588;10.176;2023-01-28T06:27:35;-0.90;99.90
17202;DHT22;8717;53.588;10.176;2023-01-28T06:30:04;-0.90;99.90
17202;DHT22;8717;53.588;10.176;2023-01-28T06:32:31;-0.90;99.90
17202;DHT22;8717;53.588;10.176;2023-01-28T06:34:58;-1.00;99.90
17202;DHT22;8717;53.588;10.176;2023-01-28T06:37:25;-1.00;99.90
17202;DHT22;8717;53.588;10.176;2023-01-28T06:39:52;-1.00;99.90
17202;DHT22;8717;53.588;10.176;2023-01-28T06:42:19;-1.10;99.90
17202;DHT22;8717;53.588;10.176;2023-01-28T06:44:46;-1.10;99.90
17202;DHT22;8717;53.588;10.176;2023-01-28T06:47:14;-1.20;99.90
17202;DHT22;8717;53.588;10.176;2023-01-28T06:49:40;-1.20;99.90
17202;DHT22;8717;53.588;10.176;2023-01-28T06:52:07;-1.30;99.90
17202;DHT22;8717;53.588;10.176;2023-01-28T06:54:34;-1.30;99.90
17202;DHT22;8717;53.588;10.176;2023-01-28T06:57:00;-1.40;99.90
17202;DHT22;8717;53.588;10.176;2023-01-28T06:59:27;-1.50;99.90
17202;DHT22;8717;53.588;10.176;2023-01-28T07:01:53;-1.50;99.90
17202;DHT22;8717;53.588;10.176;2023-01-28T07:04:21;-1.50;99.90
17202;DHT22;8717;53.588;10.176;2023-01-28T07:06:48;-1.60;99.90
17202;DHT22;8717;53.588;10.176;2023-01-28T07:09:15;-1.70;99.90
17202;DHT22;8717;53.588;10.176;2023-01-28T07:11:41;-1.70;99.90
17202;DHT22;8717;53.588;10.176;2023-01-28T07:14:08;-1.70;99.90
17202;DHT22;8717;53.588;10.176;2023-01-28T07:16:35;-1.80;99.90
17202;DHT22;8717;53.588;10.176;2023-01-28T07:19:02;-1.80;99.90
17202;DHT22;8717;53.588;10.176;2023-01-28T07:21:31;-1.90;99.90
17202;DHT22;8717;53.588;10.176;2023-01-28T07:23:58;-1.90;99.90
17202;DHT22;8717;53.588;10.176;2023-01-28T07:26:25;-1.90;99.90
17202;DHT22;8717;53.588;10.176;2023-01-28T07:28:51;-1.90;99.90
17202;DHT22;8717;53.588;10.176;2023-01-28T07:31:18;-1.90;99.90
17202;DHT22;8717;53.588;10.176;2023-01-28T07:33:48;-1.90;99.90
17202;DHT22;8717;53.588;10.176;2023-01-28T07:36:14;-1.90;99.90
17202;DHT22;8717;53.588;10.176;2023-01-28T07:38:43;-1.80;99.90
17202;DHT22;8717;53.588;10.176;2023-01-28T07:41:09;-1.80;99.90
17202;DHT22;8717;53.588;10.176;2023-01-28T07:43:36;-1.80;99.90
17202;DHT22;8717;53.588;10.176;2023-01-28T07:46:03;-1.70;99.90
17202;DHT22;8717;53.588;10.176;2023-01-28T07:48:29;-1.70;99.90
17202;DHT22;8717;53.588;10.176;2023-01-28T07:50:57;-1.70;99.90
17202;DHT22;8717;53.588;10.176;2023-01-28T07:53:24;-1.70;99.90
17202;DHT22;8717;53.588;10.176;2023-01-28T07:55:57;-1.70;99.90
17202;DHT22;8717;53.588;10.176;2023-01-28T07:58:24;-1.70;99.90
17202;DHT22;8717;53.588;10.176;2023-01-28T08:00:55;-1.70;99.90
17202;DHT22;8717;53.588;10.176;2023-01-28T08:03:22;-1.70;99.90
17202;DHT22;8717;53.588;10.176;2023-01-28T08:05:51;-1.70;99.90
17202;DHT22;8717;53.588;10.176;2023-01-28T08:08:20;-1.70;99.90
17202;DHT22;8717;53.588;10.176;2023-01-28T08:10:47;-1.70;99.90
17202;DHT22;8717;53.588;10.176;2023-01-28T08:13:16;-1.70;99.90
17202;DHT22;8717;53.588;10.176;2023-01-28T08:15:43;-1.70;99.90
17202;DHT22;8717;53.588;10.176;2023-01-28T08:18:11;-1.60;99.90
17202;DHT22;8717;53.588;10.176;2023-01-28T08:20:39;-1.60;99.90
17202;DHT22;8717;53.588;10.176;2023-01-28T08:23:08;-1.50;99.90
17202;DHT22;8717;53.588;10.176;2023-01-28T08:25:36;-1.50;99.90
17202;DHT22;8717;53.588;10.176;2023-01-28T08:28:04;-1.50;99.90
17202;DHT22;8717;53.588;10.176;2023-01-28T08:30:35;-1.50;99.90
17202;DHT22;8717;53.588;10.176;2023-01-28T08:33:04;-1.40;99.90
17202;DHT22;8717;53.588;10.176;2023-01-28T08:35:32;-1.30;99.90
17202;DHT22;8717;53.588;10.176;2023-01-28T08:38:00;-1.10;99.90
17202;DHT22;8717;53.588;10.176;2023-01-28T08:40:27;-0.90;99.90
17202;DHT22;8717;53.588;10.176;2023-01-28T08:42:54;-0.60;99.90
17202;DHT22;8717;53.588;10.176;2023-01-28T08:45:22;-0.20;99.90
17202;DHT22;8717;53.588;10.176;2023-01-28T08:47:53;0.20;99.90
17202;DHT22;8717;53.588;10.176;2023-01-28T08:50:20;0.80;99.90
17202;DHT22;8717;53.588;10.176;2023-01-28T08:52:53;1.30;99.90
17202;DHT22;8717;53.588;10.176;2023-01-28T08:55:24;1.90;99.90
17202;DHT22;8717;53.588;10.176;2023-01-28T08:57:51;2.50;99.90
17202;DHT22;8717;53.588;10.176;2023-01-28T09:00:19;3.00;99.90
17202;DHT22;8717;53.588;10.176;2023-01-28T09:02:51;3.30;99.90
17202;DHT22;8717;53.588;10.176;2023-01-28T09:05:18;3.40;99.90
17202;DHT22;8717;53.588;10.176;2023-01-28T09:07:46;3.40;99.90
17202;DHT22;8717;53.588;10.176;2023-01-28T09:10:16;3.20;99.90
17202;DHT22;8717;53.588;10.176;2023-01-28T09:12:44;3.00;99.90
17202;DHT22;8717;53.588;10.176;2023-01-28T09:15:12;2.70;99.90
17202;DHT22;8717;53.588;10.176;2023-01-28T09:17:39;2.40;99.90
17202;DHT22;8717;53.588;10.176;2023-01-28T09:20:10;2.10;99.90
17202;DHT22;8717;53.588;10.176;2023-01-28T09:22:37;1.90;99.90
17202;DHT22;8717;53.588;10.176;2023-01-28T09:25:05;1.80;99.90
17202;DHT22;8717;53.588;10.176;2023-01-28T09:27:32;1.90;99.90
17202;DHT22;8717;53.588;10.176;2023-01-28T09:29:59;2.20;99.90
17202;DHT22;8717;53.588;10.176;2023-01-28T09:32:25;2.50;99.90
17202;DHT22;8717;53.588;10.176;2023-01-28T09:34:52;3.10;99.90
17202;DHT22;8717;53.588;10.176;2023-01-28T09:37:20;3.70;99.90
17202;DHT22;8717;53.588;10.176;2023-01-28T09:39:47;4.30;99.90
17202;DHT22;8717;53.588;10.176;2023-01-28T09:42:29;5.00;99.90
17202;DHT22;8717;53.588;10.176;2023-01-28T09:45:02;5.50;99.90
17202;DHT22;8717;53.588;10.176;2023-01-28T09:47:36;6.10;99.90
17202;DHT22;8717;53.588;10.176;2023-01-28T09:50:11;6.50;99.90
17202;DHT22;8717;53.588;10.176;2023-01-28T09:52:43;6.90;99.90
17202;DHT22;8717;53.588;10.176;2023-01-28T09:55:16;7.20;99.90
17202;DHT22;8717;53.588;10.176;2023-01-28T09:57:47;7.40;99.90
17202;DHT22;8717;53.588;10.176;2023-01-28T10:00:20;7.40;99.70
17202;DHT22;8717;53.588;10.176;2023-01-28T10:03:04;7.40;99.80
17202;DHT22;8717;53.588;10.176;2023-01-28T10:05:40;7.30;98.00
17202;DHT22;8717;53.588;10.176;2023-01-28T10:08:23;7.30;98.80
17202;DHT22;8717;53.588;10.176;2023-01-28T10:10:59;7.30;98.40
17202;DHT22;8717;53.588;10.176;2023-01-28T10:13:35;7.40;99.30
17202;DHT22;8717;53.588;10.176;2023-01-28T10:16:14;7.50;99.00
17202;DHT22;8717;53.588;10.176;2023-01-28T10:18:47;7.70;98.90
17202;DHT22;8717;53.588;10.176;2023-01-28T10:21:19;7.90;98.90
17202;DHT22;8717;53.588;10.176;2023-01-28T10:23:58;8.10;98.60
17202;DHT22;8717;53.588;10.176;2023-01-28T10:26:30;8.40;98.10
17202;DHT22;8717;53.588;10.176;2023-01-28T10:29:03;8.60;98.20
17202;DHT22;8717;53.588;10.176;2023-01-28T10:31:35;8.70;96.70
17202;DHT22;8717;53.588;10.176;2023-01-28T10:34:05;8.80;95.60
17202;DHT22;8717;53.588;10.176;2023-01-28T10:36:33;8.90;96.80
17202;DHT22;8717;53.588;10.176;2023-01-28T10:39:01;9.00;96.10
17202;DHT22;8717;53.588;10.176;2023-01-28T10:41:28;9.10;96.10
17202;DHT22;8717;53.588;10.176;2023-01-28T10:43:56;9.20;96.40
17202;DHT22;8717;53.588;10.176;2023-01-28T10:46:27;9.20;95.60
17202;DHT22;8717;53.588;10.176;2023-01-28T10:48:58;9.20;95.40
17202;DHT22;8717;53.588;10.176;2023-01-28T10:51:32;9.20;94.30
17202;DHT22;8717;53.588;10.176;2023-01-28T10:54:12;9.00;94.10
17202;DHT22;8717;53.588;10.176;2023-01-28T10:56:43;8.90;94.00
17202;DHT22;8717;53.588;10.176;2023-01-28T10:59:25;8.60;92.40
17202;DHT22;8717;53.588;10.176;2023-01-28T11:01:53;8.30;92.80
17202;DHT22;8717;53.588;10.176;2023-01-28T11:04:24;8.10;93.60
17202;DHT22;8717;53.588;10.176;2023-01-28T11:06:56;8.00;93.60
17202;DHT22;8717;53.588;10.176;2023-01-28T11:09:27;7.70;93.10
17202;DHT22;8717;53.588;10.176;2023-01-28T11:11:53;7.50;93.90
17202;DHT22;8717;53.588;10.176;2023-01-28T11:14:24;7.20;93.00
17202;DHT22;8717;53.588;10.176;2023-01-28T11:16:53;6.90;92.70
17202;DHT22;8717;53.588;10.176;2023-01-28T11:19:26;6.70;94.20
17202;DHT22;8717;53.588;10.176;2023-01-28T11:21:56;6.60;95.00
17202;DHT22;8717;53.588;10.176;2023-01-28T11:24:27;6.60;95.20
17202;DHT22;8717;53.588;10.176;2023-01-28T11:26:57;6.50;94.40
17202;DHT22;8717;53.588;10.176;2023-01-28T11:29:27;6.50;95.20
17202;DHT22;8717;53.588;10.176;2023-01-28T11:31:56;6.40;94.50
17202;DHT22;8717;53.588;10.176;2023-01-28T11:34:25;6.40;95.60
17202;DHT22;8717;53.588;10.176;2023-01-28T11:36:59;6.40;95.90
17202;DHT22;8717;53.588;10.176;2023-01-28T11:39:28;6.40;95.80
17202;DHT22;8717;53.588;10.176;2023-01-28T11:42:02;6.40;96.50
17202;DHT22;8717;53.588;10.176;2023-01-28T11:44:30;6.50;96.30
17202;DHT22;8717;53.588;10.176;2023-01-28T11:47:07;6.60;96.70
17202;DHT22;8717;53.588;10.176;2023-01-28T11:49:45;6.60;96.00
17202;DHT22;8717;53.588;10.176;2023-01-28T11:52:21;6.70;95.70
17202;DHT22;8717;53.588;10.176;2023-01-28T11:55:15;6.70;95.80
17202;DHT22;8717;53.588;10.176;2023-01-28T11:57:51;6.70;95.40
17202;DHT22;8717;53.588;10.176;2023-01-28T12:00:31;6.60;95.00
17202;DHT22;8717;53.588;10.176;2023-01-28T12:03:14;6.40;95.50
17202;DHT22;8717;53.588;10.176;2023-01-28T12:05:51;6.30;96.00
17202;DHT22;8717;53.588;10.176;2023-01-28T12:08:21;6.30;96.50
17202;DHT22;8717;53.588;10.176;2023-01-28T12:11:04;6.30;96.40
17202;DHT22;8717;53.588;10.176;2023-01-28T12:14:00;6.20;96.00
17202;DHT22;8717;53.588;10.176;2023-01-28T12:16:45;6.10;95.60
17202;DHT22;8717;53.588;10.176;2023-01-28T12:19:36;6.10;95.80
17202;DHT22;8717;53.588;10.176;2023-01-28T12:22:19;6.00;96.00
17202;DHT22;8717;53.588;10.176;2023-01-28T12:25:14;6.00;96.20
17202;DHT22;8717;53.588;10.176;2023-01-28T12:27:51;5.90;96.10
17202;DHT22;8717;53.588;10.176;2023-01-28T12:30:30;5.90;96.50
17202;DHT22;8717;53.588;10.176;2023-01-28T12:33:27;5.90;96.10
17202;DHT22;8717;53.588;10.176;2023-01-28T12:36:02;5.80;96.00
17202;DHT22;8717;53.588;10.176;2023-01-28T12:38:42;5.70;96.30
17202;DHT22;8717;53.588;10.176;2023-01-28T12:41:11;5.60;96.30
17202;DHT22;8717;53.588;10.176;2023-01-28T12:43:50;5.50;96.40
17202;DHT22;8717;53.588;10.176;2023-01-28T12:46:34;5.40;96.50
17202;DHT22;8717;53.588;10.176;2023-01-28T12:49:07;5.40;96.70
17202;DHT22;8717;53.588;10.176;2023-01-28T12:51:45;5.30;96.70
17202;DHT22;8717;53.588;10.176;2023-01-28T12:54:18;5.30;97.00
17202;DHT22;8717;53.588;10.176;2023-01-28T12:56:53;5.30;97.30
17202;DHT22;8717;53.588;10.176;2023-01-28T12:59:26;5.40;97.40
17202;DHT22;8717;53.588;10.176;2023-01-28T13:02:04;5.40;97.30
17202;DHT22;8717;53.588;10.176;2023-01-28T13:04:39;5.40;97.40
17202;DHT22;8717;53.588;10.176;2023-01-28T13:07:13;5.50;97.70
17202;DHT22;8717;53.588;10.176;2023-01-28T13:09:50;5.50;97.50
17202;DHT22;8717;53.588;10.176;2023-01-28T13:12:19;5.50;97.20
17202;DHT22;8717;53.588;10.176;2023-01-28T13:14:48;5.50;97.30
17202;DHT22;8717;53.588;10.176;2023-01-28T13:17:25;5.40;97.20
17202;DHT22;8717;53.588;10.176;2023-01-28T13:19:52;5.30;97.10
17202;DHT22;8717;53.588;10.176;2023-01-28T13:22:27;5.20;97.30
17202;DHT22;8717;53.588;10.176;2023-01-28T13:24:54;5.00;97.10
17202;DHT22;8717;53.588;10.176;2023-01-28T13:27:23;4.90;97.40
17202;DHT22;8717;53.588;10.176;2023-01-28T13:30:05;4.70;97.50
17202;DHT22;8717;53.588;10.176;2023-01-28T13:32:33;4.50;97.60
17202;DHT22;8717;53.588;10.176;2023-01-28T13:35:03;4.40;97.90
17202;DHT22;8717;53.588;10.176;2023-01-28T13:37:33;4.30;98.20
17202;DHT22;8717;53.588;10.176;2023-01-28T13:40:05;4.20;98.20
17202;DHT22;8717;53.588;10.176;2023-01-28T13:42:33;4.20;98.20
17202;DHT22;8717;53.588;10.176;2023-01-28T13:45:22;4.10;98.50
17202;DHT22;8717;53.588;10.176;2023-01-28T13:47:52;4.10;98.50
17202;DHT22;8717;53.588;10.176;2023-01-28T13:50:20;4.00;98.80
17202;DHT22;8717;53.588;10.176;2023-01-28T13:52:56;4.10;98.90
17202;DHT22;8717;53.588;10.176;2023-01-28T13:55:26;4.10;98.90
17202;DHT22;8717;53.588;10.176;2023-01-28T13:58:30;4.00;99.00
17202;DHT22;8717;53.588;10.176;2023-01-28T14:01:28;4.10;99.20
17202;DHT22;8717;53.588;10.176;2023-01-28T14:07:28;4.10;99.30
17202;DHT22;8717;53.588;10.176;2023-01-28T14:10:16;4.10;99.30
17202;DHT22;8717;53.588;10.176;2023-01-28T14:13:25;4.10;99.50
17202;DHT22;8717;53.588;10.176;2023-01-28T14:16:08;4.10;99.70
17202;DHT22;8717;53.588;10.176;2023-01-28T14:18:45;4.00;99.40
17202;DHT22;8717;53.588;10.176;2023-01-28T14:21:15;4.00;99.50
17202;DHT22;8717;53.588;10.176;2023-01-28T14:23:47;4.00;99.50
17202;DHT22;8717;53.588;10.176;2023-01-28T14:26:31;3.90;99.50
17202;DHT22;8717;53.588;10.176;2023-01-28T14:29:07;3.90;99.70
17202;DHT22;8717;53.588;10.176;2023-01-28T14:31:41;3.80;99.90
17202;DHT22;8717;53.588;10.176;2023-01-28T14:34:17;3.80;99.90
17202;DHT22;8717;53.588;10.176;2023-01-28T14:36:48;3.70;99.90
17202;DHT22;8717;53.588;10.176;2023-01-28T14:39:18;3.70;99.90
17202;DHT22;8717;53.588;10.176;2023-01-28T14:41:47;3.70;99.90
17202;DHT22;8717;53.588;10.176;2023-01-28T14:44:26;3.70;99.90
17202;DHT22;8717;53.588;10.176;2023-01-28T14:47:11;3.60;99.90
17202;DHT22;8717;53.588;10.176;2023-01-28T14:49:48;3.60;99.90
17202;DHT22;8717;53.588;10.176;2023-01-28T14:52:36;3.60;99.90
17202;DHT22;8717;53.588;10.176;2023-01-28T14:55:24;3.50;99.90
17202;DHT22;8717;53.588;10.176;2023-01-28T14:57:55;3.60;99.90
17202;DHT22;8717;53.588;10.176;2023-01-28T15:03:08;3.50;99.90
17202;DHT22;8717;53.588;10.176;2023-01-28T15:05:36;3.50;99.90
17202;DHT22;8717;53.588;10.176;2023-01-28T15:08:05;3.50;99.90
17202;DHT22;8717;53.588;10.176;2023-01-28T15:10:35;3.50;99.90
17202;DHT22;8717;53.588;10.176;2023-01-28T15:13:06;3.50;99.90
17202;DHT22;8717;53.588;10.176;2023-01-28T15:15:35;3.40;99.90
17202;DHT22;8717;53.588;10.176;2023-01-28T15:18:06;3.40;99.90
17202;DHT22;8717;53.588;10.176;2023-01-28T15:20:43;3.40;99.90
17202;DHT22;8717;53.588;10.176;2023-01-28T15:23:14;3.40;99.90
17202;DHT22;8717;53.588;10.176;2023-01-28T15:25:42;3.40;99.90
17202;DHT22;8717;53.588;10.176;2023-01-28T15:28:16;3.30;99.90
17202;DHT22;8717;53.588;10.176;2023-01-28T15:30:45;3.30;99.90
17202;DHT22;8717;53.588;10.176;2023-01-28T15:33:14;3.30;99.90
17202;DHT22;8717;53.588;10.176;2023-01-28T15:35:47;3.20;99.90
17202;DHT22;8717;53.588;10.176;2023-01-28T15:38:14;3.20;99.90
17202;DHT22;8717;53.588;10.176;2023-01-28T15:40:44;3.10;99.90
17202;DHT22;8717;53.588;10.176;2023-01-28T15:43:17;3.00;99.90
17202;DHT22;8717;53.588;10.176;2023-01-28T15:45:45;3.00;99.90
17202;DHT22;8717;53.588;10.176;2023-01-28T15:48:13;3.00;99.90
17202;DHT22;8717;53.588;10.176;2023-01-28T15:50:44;2.90;99.90
17202;DHT22;8717;53.588;10.176;2023-01-28T15:53:13;2.90;99.90
17202;DHT22;8717;53.588;10.176;2023-01-28T15:55:41;2.90;99.90
17202;DHT22;8717;53.588;10.176;2023-01-28T15:58:19;2.80;99.90
17202;DHT22;8717;53.588;10.176;2023-01-28T16:00:47;2.80;99.90
17202;DHT22;8717;53.588;10.176;2023-01-28T16:03:19;2.80;99.90
17202;DHT22;8717;53.588;10.176;2023-01-28T16:06:00;2.70;99.90
17202;DHT22;8717;53.588;10.176;2023-01-28T16:08:33;2.70;99.90
17202;DHT22;8717;53.588;10.176;2023-01-28T16:11:04;2.60;99.90
17202;DHT22;8717;53.588;10.176;2023-01-28T16:13:34;2.60;99.90
17202;DHT22;8717;53.588;10.176;2023-01-28T16:16:03;2.60;99.90
17202;DHT22;8717;53.588;10.176;2023-01-28T16:18:38;2.60;99.90
17202;DHT22;8717;53.588;10.176;2023-01-28T16:21:06;2.50;99.90